sensor_id;sensor_type;location;lat;lon;timestamp;pressure;altitude;pressure_sealevel;temperature;humidity
55191;BME280;41070;50.360;18.742;2022-08-23T00:01:19;98322.55;;;17.62;100.00
55191;BME280;41070;50.360;18.742;2022-08-23T00:03:49;98315.74;;;17.63;100.00
55191;BME280;41070;50.360;18.742;2022-08-23T00:06:18;98310.89;;;17.60;100.00
55191;BME280;41070;50.360;18.742;2022-08-23T00:08:49;98299.78;;;17.59;100.00
55191;BME280;41070;50.360;18.742;2022-08-23T00:11:37;98298.40;;;17.57;100.00
55191;BME280;41070;50.360;18.742;2022-08-23T00:14:13;98292.77;;;17.54;100.00
55191;BME280;41070;50.360;18.742;2022-08-23T00:16:42;98299.00;;;17.48;100.00
55191;BME280;41070;50.360;18.742;2022-08-23T00:19:12;98300.19;;;17.42;100.00
55191;BME280;41070;50.360;18.742;2022-08-23T00:21:40;98308.79;;;17.37;100.00
55191;BME280;41070;50.360;18.742;2022-08-23T00:24:09;98316.61;;;17.32;100.00
55191;BME280;41070;50.360;18.742;2022-08-23T00:27:08;98314.63;;;17.28;100.00
55191;BME280;41070;50.360;18.742;2022-08-23T00:29:47;98311.71;;;17.23;100.00
55191;BME280;41070;50.360;18.742;2022-08-23T00:32:18;98313.42;;;17.20;100.00
55191;BME280;41070;50.360;18.742;2022-08-23T00:34:46;98317.21;;;17.18;100.00
55191;BME280;41070;50.360;18.742;2022-08-23T00:37:14;98320.23;;;17.18;100.00
55191;BME280;41070;50.360;18.742;2022-08-23T00:39:43;98321.00;;;17.18;100.00
55191;BME280;41070;50.360;18.742;2022-08-23T00:42:12;98323.77;;;17.20;100.00
55191;BME280;41070;50.360;18.742;2022-08-23T00:45:03;98319.05;;;17.22;100.00
55191;BME280;41070;50.360;18.742;2022-08-23T00:47:49;98320.69;;;17.21;100.00
55191;BME280;41070;50.360;18.742;2022-08-23T00:50:24;98317.29;;;17.20;100.00
55191;BME280;41070;50.360;18.742;2022-08-23T00:52:59;98317.28;;;17.21;100.00
55191;BME280;41070;50.360;18.742;2022-08-23T00:55:29;98321.05;;;17.21;100.00
55191;BME280;41070;50.360;18.742;2022-08-23T00:57:57;98319.50;;;17.23;100.00
55191;BME280;41070;50.360;18.742;2022-08-23T01:00:26;98319.48;;;17.29;100.00
55191;BME280;41070;50.360;18.742;2022-08-23T01:02:54;98316.69;;;17.33;100.00
55191;BME280;41070;50.360;18.742;2022-08-23T01:05:29;98316.98;;;17.37;100.00
55191;BME280;41070;50.360;18.742;2022-08-23T01:07:58;98314.73;;;17.35;100.00
55191;BME280;41070;50.360;18.742;2022-08-23T01:10:46;98317.38;;;17.34;100.00
55191;BME280;41070;50.360;18.742;2022-08-23T01:13:20;98330.58;;;17.36;100.00
55191;BME280;41070;50.360;18.742;2022-08-23T01:15:53;98333.60;;;17.36;100.00
55191;BME280;41070;50.360;18.742;2022-08-23T01:18:25;98335.44;;;17.33;100.00
55191;BME280;41070;50.360;18.742;2022-08-23T01:21:09;98331.23;;;17.30;100.00
55191;BME280;41070;50.360;18.742;2022-08-23T01:23:49;98342.20;;;17.27;100.00
55191;BME280;41070;50.360;18.742;2022-08-23T01:26:19;98343.23;;;17.24;100.00
55191;BME280;41070;50.360;18.742;2022-08-23T01:28:48;98348.55;;;17.22;100.00
55191;BME280;41070;50.360;18.742;2022-08-23T01:31:17;98346.48;;;17.21;100.00
55191;BME280;41070;50.360;18.742;2022-08-23T01:33:50;98347.10;;;17.20;100.00
55191;BME280;41070;50.360;18.742;2022-08-23T01:36:20;98345.33;;;17.18;100.00
55191;BME280;41070;50.360;18.742;2022-08-23T01:38:48;98350.58;;;17.19;100.00
55191;BME280;41070;50.360;18.742;2022-08-23T01:41:15;98352.57;;;17.24;100.00
55191;BME280;41070;50.360;18.742;2022-08-23T01:43:43;98354.02;;;17.26;100.00
55191;BME280;41070;50.360;18.742;2022-08-23T01:46:15;98353.46;;;17.30;100.00
55191;BME280;41070;50.360;18.742;2022-08-23T01:48:46;98351.98;;;17.33;100.00
55191;BME280;41070;50.360;18.742;2022-08-23T01:51:16;98351.91;;;17.32;100.00
55191;BME280;41070;50.360;18.742;2022-08-23T01:53:44;98350.91;;;17.31;100.00
55191;BME280;41070;50.360;18.742;2022-08-23T01:56:13;98345.51;;;17.31;100.00
55191;BME280;41070;50.360;18.742;2022-08-23T01:58:46;98346.98;;;17.34;100.00
55191;BME280;41070;50.360;18.742;2022-08-23T02:01:14;98351.27;;;17.38;100.00
55191;BME280;41070;50.360;18.742;2022-08-23T02:03:42;98352.11;;;17.41;100.00
55191;BME280;41070;50.360;18.742;2022-08-23T02:06:09;98350.32;;;17.44;100.00
55191;BME280;41070;50.360;18.742;2022-08-23T02:08:37;98354.80;;;17.44;100.00
55191;BME280;41070;50.360;18.742;2022-08-23T02:11:24;98350.46;;;17.46;100.00
55191;BME280;41070;50.360;18.742;2022-08-23T02:13:53;98347.52;;;17.47;100.00
55191;BME280;41070;50.360;18.742;2022-08-23T02:16:30;98349.21;;;17.49;100.00
55191;BME280;41070;50.360;18.742;2022-08-23T02:19:00;98348.42;;;17.51;100.00
55191;BME280;41070;50.360;18.742;2022-08-23T02:21:29;98347.19;;;17.52;100.00
55191;BME280;41070;50.360;18.742;2022-08-23T02:23:58;98347.19;;;17.52;100.00
55191;BME280;41070;50.360;18.742;2022-08-23T02:26:26;98342.54;;;17.54;100.00
55191;BME280;41070;50.360;18.742;2022-08-23T02:28:53;98342.98;;;17.58;100.00
55191;BME280;41070;50.360;18.742;2022-08-23T02:31:21;98343.73;;;17.62;100.00
55191;BME280;41070;50.360;18.742;2022-08-23T02:33:49;98344.19;;;17.64;100.00
55191;BME280;41070;50.360;18.742;2022-08-23T02:36:16;98347.11;;;17.66;100.00
55191;BME280;41070;50.360;18.742;2022-08-23T02:38:44;98346.64;;;17.68;100.00
55191;BME280;41070;50.360;18.742;2022-08-23T02:41:11;98347.42;;;17.68;100.00
55191;BME280;41070;50.360;18.742;2022-08-23T02:43:39;98347.50;;;17.67;100.00
55191;BME280;41070;50.360;18.742;2022-08-23T02:46:06;98346.64;;;17.68;100.00
55191;BME280;41070;50.360;18.742;2022-08-23T02:48:35;98349.73;;;17.69;100.00
55191;BME280;41070;50.360;18.742;2022-08-23T02:51:05;98357.98;;;17.73;100.00
55191;BME280;41070;50.360;18.742;2022-08-23T02:53:33;98358.11;;;17.77;100.00
55191;BME280;41070;50.360;18.742;2022-08-23T02:56:02;98355.69;;;17.80;100.00
55191;BME280;41070;50.360;18.742;2022-08-23T02:58:29;98362.11;;;17.84;100.00
55191;BME280;41070;50.360;18.742;2022-08-23T03:00:57;98364.95;;;17.88;100.00
55191;BME280;41070;50.360;18.742;2022-08-23T03:03:24;98367.56;;;17.91;100.00
55191;BME280;41070;50.360;18.742;2022-08-23T03:05:52;98368.95;;;17.93;100.00
55191;BME280;41070;50.360;18.742;2022-08-23T03:08:21;98372.71;;;17.97;100.00
55191;BME280;41070;50.360;18.742;2022-08-23T03:10:51;98376.15;;;18.01;100.00
55191;BME280;41070;50.360;18.742;2022-08-23T03:13:19;98372.81;;;18.04;100.00
55191;BME280;41070;50.360;18.742;2022-08-23T03:15:46;98371.79;;;18.05;100.00
55191;BME280;41070;50.360;18.742;2022-08-23T03:18:14;98369.23;;;18.06;100.00
55191;BME280;41070;50.360;18.742;2022-08-23T03:20:42;98363.30;;;18.06;100.00
55191;BME280;41070;50.360;18.742;2022-08-23T03:23:10;98358.17;;;18.06;100.00
55191;BME280;41070;50.360;18.742;2022-08-23T03:25:38;98358.95;;;18.06;100.00
55191;BME280;41070;50.360;18.742;2022-08-23T03:28:06;98365.52;;;18.08;100.00
55191;BME280;41070;50.360;18.742;2022-08-23T03:30:45;98373.09;;;18.08;100.00
55191;BME280;41070;50.360;18.742;2022-08-23T03:33:12;98373.95;;;18.08;100.00
55191;BME280;41070;50.360;18.742;2022-08-23T03:35:41;98376.27;;;18.07;100.00
55191;BME280;41070;50.360;18.742;2022-08-23T03:38:08;98370.88;;;18.04;100.00
55191;BME280;41070;50.360;18.742;2022-08-23T03:40:36;98370.50;;;18.04;100.00
55191;BME280;41070;50.360;18.742;2022-08-23T03:43:04;98375.54;;;18.01;100.00
55191;BME280;41070;50.360;18.742;2022-08-23T03:45:32;98372.17;;;17.97;100.00
55191;BME280;41070;50.360;18.742;2022-08-23T03:47:59;98375.51;;;17.95;100.00
55191;BME280;41070;50.360;18.742;2022-08-23T03:50:27;98376.34;;;17.96;100.00
55191;BME280;41070;50.360;18.742;2022-08-23T03:52:55;98380.20;;;17.95;100.00
55191;BME280;41070;50.360;18.742;2022-08-23T03:55:22;98379.52;;;17.95;100.00
55191;BME280;41070;50.360;18.742;2022-08-23T03:57:50;98383.46;;;17.94;100.00
55191;BME280;41070;50.360;18.742;2022-08-23T04:00:17;98390.89;;;17.94;100.00
55191;BME280;41070;50.360;18.742;2022-08-23T04:02:45;98392.14;;;17.94;100.00
55191;BME280;41070;50.360;18.742;2022-08-23T04:05:13;98393.06;;;17.94;100.00
55191;BME280;41070;50.360;18.742;2022-08-23T04:07:40;98392.14;;;17.94;100.00
55191;BME280;41070;50.360;18.742;2022-08-23T04:10:09;98393.83;;;17.95;100.00
55191;BME280;41070;50.360;18.742;2022-08-23T04:12:41;98393.43;;;17.96;100.00
55191;BME280;41070;50.360;18.742;2022-08-23T04:15:09;98388.80;;;17.96;100.00
55191;BME280;41070;50.360;18.742;2022-08-23T04:17:37;98393.34;;;17.98;100.00
55191;BME280;41070;50.360;18.742;2022-08-23T04:20:05;98396.65;;;18.00;100.00
55191;BME280;41070;50.360;18.742;2022-08-23T04:22:33;98396.70;;;18.03;100.00
55191;BME280;41070;50.360;18.742;2022-08-23T04:25:01;98393.91;;;18.07;100.00
55191;BME280;41070;50.360;18.742;2022-08-23T04:27:28;98398.05;;;18.11;100.00
55191;BME280;41070;50.360;18.742;2022-08-23T04:29:57;98401.38;;;18.12;100.00
55191;BME280;41070;50.360;18.742;2022-08-23T04:32:25;98396.82;;;18.11;100.00
55191;BME280;41070;50.360;18.742;2022-08-23T04:34:52;98395.52;;;18.06;100.00
55191;BME280;41070;50.360;18.742;2022-08-23T04:37:20;98396.73;;;18.01;100.00
55191;BME280;41070;50.360;18.742;2022-08-23T04:39:48;98395.73;;;18.02;100.00
55191;BME280;41070;50.360;18.742;2022-08-23T04:42:33;98403.43;;;18.05;100.00
55191;BME280;41070;50.360;18.742;2022-08-23T04:45:01;98406.23;;;18.01;100.00
55191;BME280;41070;50.360;18.742;2022-08-23T04:47:28;98411.89;;;18.01;100.00
55191;BME280;41070;50.360;18.742;2022-08-23T04:49:56;98415.11;;;18.04;100.00
55191;BME280;41070;50.360;18.742;2022-08-23T04:52:23;98422.11;;;18.10;100.00
55191;BME280;41070;50.360;18.742;2022-08-23T04:54:51;98426.96;;;18.13;100.00
55191;BME280;41070;50.360;18.742;2022-08-23T04:57:18;98428.50;;;18.16;100.00
55191;BME280;41070;50.360;18.742;2022-08-23T04:59:46;98430.17;;;18.22;100.00
55191;BME280;41070;50.360;18.742;2022-08-23T05:02:13;98426.81;;;18.26;100.00
55191;BME280;41070;50.360;18.742;2022-08-23T05:04:41;98427.94;;;18.29;100.00
55191;BME280;41070;50.360;18.742;2022-08-23T05:07:09;98427.24;;;18.31;100.00
55191;BME280;41070;50.360;18.742;2022-08-23T05:09:37;98431.41;;;18.33;100.00
55191;BME280;41070;50.360;18.742;2022-08-23T05:12:05;98427.33;;;18.40;100.00
55191;BME280;41070;50.360;18.742;2022-08-23T05:14:32;98422.63;;;18.47;100.00
55191;BME280;41070;50.360;18.742;2022-08-23T05:17:00;98424.46;;;18.51;100.00
55191;BME280;41070;50.360;18.742;2022-08-23T05:19:28;98424.83;;;18.53;100.00
55191;BME280;41070;50.360;18.742;2022-08-23T05:21:55;98433.27;;;18.53;100.00
55191;BME280;41070;50.360;18.742;2022-08-23T05:24:23;98436.27;;;18.56;100.00
55191;BME280;41070;50.360;18.742;2022-08-23T05:26:50;98438.72;;;18.60;100.00
55191;BME280;41070;50.360;18.742;2022-08-23T05:29:18;98439.70;;;18.62;100.00
55191;BME280;41070;50.360;18.742;2022-08-23T05:31:46;98438.45;;;18.63;100.00
55191;BME280;41070;50.360;18.742;2022-08-23T05:34:14;98440.06;;;18.65;100.00
55191;BME280;41070;50.360;18.742;2022-08-23T05:36:41;98439.35;;;18.66;100.00
55191;BME280;41070;50.360;18.742;2022-08-23T05:39:09;98443.67;;;18.67;100.00
55191;BME280;41070;50.360;18.742;2022-08-23T05:41:37;98448.16;;;18.69;100.00
55191;BME280;41070;50.360;18.742;2022-08-23T05:44:05;98445.73;;;18.71;100.00
55191;BME280;41070;50.360;18.742;2022-08-23T05:46:33;98445.99;;;18.70;100.00
55191;BME280;41070;50.360;18.742;2022-08-23T05:49:00;98448.16;;;18.70;100.00
55191;BME280;41070;50.360;18.742;2022-08-23T05:51:31;98448.62;;;18.70;100.00
55191;BME280;41070;50.360;18.742;2022-08-23T05:54:02;98446.95;;;18.74;100.00
55191;BME280;41070;50.360;18.742;2022-08-23T05:56:33;98447.77;;;18.79;100.00
55191;BME280;41070;50.360;18.742;2022-08-23T05:59:06;98453.42;;;18.80;100.00
55191;BME280;41070;50.360;18.742;2022-08-23T06:01:35;98457.55;;;18.78;100.00
55191;BME280;41070;50.360;18.742;2022-08-23T06:04:05;98456.30;;;18.80;100.00
55191;BME280;41070;50.360;18.742;2022-08-23T06:06:34;98458.91;;;18.83;100.00
55191;BME280;41070;50.360;18.742;2022-08-23T06:09:03;98461.55;;;18.91;100.00
55191;BME280;41070;50.360;18.742;2022-08-23T06:11:32;98458.39;;;18.99;100.00
55191;BME280;41070;50.360;18.742;2022-08-23T06:14:01;98458.74;;;19.01;100.00
55191;BME280;41070;50.360;18.742;2022-08-23T06:16:36;98461.52;;;19.03;100.00
55191;BME280;41070;50.360;18.742;2022-08-23T06:19:06;98464.99;;;19.04;100.00
55191;BME280;41070;50.360;18.742;2022-08-23T06:21:34;98468.05;;;19.08;100.00
55191;BME280;41070;50.360;18.742;2022-08-23T06:24:03;98465.70;;;19.11;100.00
55191;BME280;41070;50.360;18.742;2022-08-23T06:26:41;98464.84;;;19.12;100.00
55191;BME280;41070;50.360;18.742;2022-08-23T06:29:13;98464.84;;;19.11;100.00
55191;BME280;41070;50.360;18.742;2022-08-23T06:31:43;98465.67;;;19.15;100.00
55191;BME280;41070;50.360;18.742;2022-08-23T06:34:27;98466.40;;;19.19;100.00
55191;BME280;41070;50.360;18.742;2022-08-23T06:37:02;98470.73;;;19.20;100.00
55191;BME280;41070;50.360;18.742;2022-08-23T06:39:31;98472.90;;;19.21;100.00
55191;BME280;41070;50.360;18.742;2022-08-23T06:42:03;98477.67;;;19.24;100.00
55191;BME280;41070;50.360;18.742;2022-08-23T06:44:33;98477.92;;;19.28;100.00
55191;BME280;41070;50.360;18.742;2022-08-23T06:47:02;98476.74;;;19.30;100.00
55191;BME280;41070;50.360;18.742;2022-08-23T06:49:30;98481.79;;;19.30;100.00
55191;BME280;41070;50.360;18.742;2022-08-23T06:51:59;98487.67;;;19.29;100.00
55191;BME280;41070;50.360;18.742;2022-08-23T06:54:31;98491.08;;;19.24;100.00
55191;BME280;41070;50.360;18.742;2022-08-23T06:57:00;98494.60;;;19.20;100.00
55191;BME280;41070;50.360;18.742;2022-08-23T06:59:28;98495.36;;;19.20;100.00
55191;BME280;41070;50.360;18.742;2022-08-23T07:02:06;98491.24;;;19.22;100.00
55191;BME280;41070;50.360;18.742;2022-08-23T07:04:37;98494.28;;;19.21;100.00
55191;BME280;41070;50.360;18.742;2022-08-23T07:07:07;98494.05;;;19.20;100.00
55191;BME280;41070;50.360;18.742;2022-08-23T07:09:35;98492.58;;;19.21;100.00
55191;BME280;41070;50.360;18.742;2022-08-23T07:12:03;98492.31;;;19.23;100.00
55191;BME280;41070;50.360;18.742;2022-08-23T07:14:31;98493.09;;;19.23;100.00
55191;BME280;41070;50.360;18.742;2022-08-23T07:17:00;98488.73;;;19.26;100.00
55191;BME280;41070;50.360;18.742;2022-08-23T07:19:31;98490.30;;;19.31;100.00
55191;BME280;41070;50.360;18.742;2022-08-23T07:22:01;98491.25;;;19.36;100.00
55191;BME280;41070;50.360;18.742;2022-08-23T07:32:43;98493.67;;;19.64;100.00
55191;BME280;41070;50.360;18.742;2022-08-23T07:38:01;98497.68;;;19.75;100.00
55191;BME280;41070;50.360;18.742;2022-08-23T07:53:41;98502.13;;;20.51;100.00
55191;BME280;41070;50.360;18.742;2022-08-23T07:56:13;98502.58;;;20.58;100.00
55191;BME280;41070;50.360;18.742;2022-08-23T07:58:41;98506.38;;;20.69;99.80
55191;BME280;41070;50.360;18.742;2022-08-23T08:01:15;98506.35;;;20.86;99.94
55191;BME280;41070;50.360;18.742;2022-08-23T08:03:45;98511.98;;;20.93;99.01
55191;BME280;41070;50.360;18.742;2022-08-23T08:06:16;98515.45;;;20.90;98.75
55191;BME280;41070;50.360;18.742;2022-08-23T08:08:44;98515.10;;;20.87;98.67
55191;BME280;41070;50.360;18.742;2022-08-23T08:11:17;98518.34;;;20.79;98.25
55191;BME280;41070;50.360;18.742;2022-08-23T08:13:47;98522.59;;;20.71;98.17
55191;BME280;41070;50.360;18.742;2022-08-23T08:16:31;98525.72;;;20.64;98.17
55191;BME280;41070;50.360;18.742;2022-08-23T08:19:02;98525.30;;;20.59;98.69
55191;BME280;41070;50.360;18.742;2022-08-23T08:21:30;98527.71;;;20.65;99.34
55191;BME280;41070;50.360;18.742;2022-08-23T08:23:58;98528.60;;;20.69;99.22
55191;BME280;41070;50.360;18.742;2022-08-23T08:26:26;98532.07;;;20.75;99.14
55191;BME280;41070;50.360;18.742;2022-08-23T08:28:54;98534.30;;;20.82;99.18
55191;BME280;41070;50.360;18.742;2022-08-23T08:31:24;98534.02;;;20.91;99.14
55191;BME280;41070;50.360;18.742;2022-08-23T08:33:53;98536.13;;;20.99;99.15
55191;BME280;41070;50.360;18.742;2022-08-23T08:36:34;98539.17;;;21.07;98.57
55191;BME280;41070;50.360;18.742;2022-08-23T08:39:05;98542.73;;;21.13;98.34
55191;BME280;41070;50.360;18.742;2022-08-23T08:44:37;98553.52;;;21.25;97.77
55191;BME280;41070;50.360;18.742;2022-08-23T08:47:15;98559.83;;;21.27;97.31
55191;BME280;41070;50.360;18.742;2022-08-23T08:52:40;98561.15;;;21.33;97.02
55191;BME280;41070;50.360;18.742;2022-08-23T08:55:18;98564.51;;;21.32;96.76
55191;BME280;41070;50.360;18.742;2022-08-23T08:57:48;98563.26;;;21.32;96.51
55191;BME280;41070;50.360;18.742;2022-08-23T09:00:19;98562.96;;;21.35;96.72
55191;BME280;41070;50.360;18.742;2022-08-23T09:02:47;98563.30;;;21.43;96.35
55191;BME280;41070;50.360;18.742;2022-08-23T09:05:30;98561.54;;;21.52;96.46
55191;BME280;41070;50.360;18.742;2022-08-23T09:08:27;98565.84;;;21.59;95.46
55191;BME280;41070;50.360;18.742;2022-08-23T09:17:02;98572.27;;;21.74;94.16
55191;BME280;41070;50.360;18.742;2022-08-23T09:19:33;98571.94;;;21.74;94.09
55191;BME280;41070;50.360;18.742;2022-08-23T09:22:11;98575.41;;;21.80;94.14
55191;BME280;41070;50.360;18.742;2022-08-23T09:24:40;98579.69;;;21.84;93.78
55191;BME280;41070;50.360;18.742;2022-08-23T09:27:09;98582.46;;;21.81;93.68
55191;BME280;41070;50.360;18.742;2022-08-23T09:29:39;98585.84;;;21.80;93.81
55191;BME280;41070;50.360;18.742;2022-08-23T09:32:38;98587.86;;;21.75;93.86
55191;BME280;41070;50.360;18.742;2022-08-23T09:35:23;98593.27;;;21.73;93.39
55191;BME280;41070;50.360;18.742;2022-08-23T09:37:56;98592.40;;;21.69;93.72
55191;BME280;41070;50.360;18.742;2022-08-23T09:40:27;98595.31;;;21.72;93.29
55191;BME280;41070;50.360;18.742;2022-08-23T09:43:04;98597.77;;;21.65;92.73
55191;BME280;41070;50.360;18.742;2022-08-23T09:45:35;98596.89;;;21.61;93.19
55191;BME280;41070;50.360;18.742;2022-08-23T09:48:04;98593.14;;;21.59;92.97
55191;BME280;41070;50.360;18.742;2022-08-23T09:50:40;98596.81;;;21.53;92.53
55191;BME280;41070;50.360;18.742;2022-08-23T09:53:09;98594.93;;;21.44;92.91
55191;BME280;41070;50.360;18.742;2022-08-23T09:55:48;98593.92;;;21.39;92.80
55191;BME280;41070;50.360;18.742;2022-08-23T09:58:22;98598.20;;;21.34;92.91
55191;BME280;41070;50.360;18.742;2022-08-23T10:03:44;98595.92;;;21.31;93.26
55191;BME280;41070;50.360;18.742;2022-08-23T10:06:27;98596.84;;;21.32;93.53
55191;BME280;41070;50.360;18.742;2022-08-23T10:08:55;98593.73;;;21.31;93.10
55191;BME280;41070;50.360;18.742;2022-08-23T10:11:42;98595.40;;;21.30;93.31
55191;BME280;41070;50.360;18.742;2022-08-23T10:14:16;98600.59;;;21.26;93.08
55191;BME280;41070;50.360;18.742;2022-08-23T10:19:57;98605.73;;;21.19;93.09
55191;BME280;41070;50.360;18.742;2022-08-23T10:22:43;98607.84;;;21.10;93.06
55191;BME280;41070;50.360;18.742;2022-08-23T10:25:31;98608.68;;;21.05;93.31
55191;BME280;41070;50.360;18.742;2022-08-23T10:39:41;98609.77;;;21.11;93.56
55191;BME280;41070;50.360;18.742;2022-08-23T10:48:19;98617.13;;;21.17;93.96
55191;BME280;41070;50.360;18.742;2022-08-23T10:51:03;98615.87;;;21.18;93.87
55191;BME280;41070;50.360;18.742;2022-08-23T10:53:34;98618.89;;;21.23;93.86
55191;BME280;41070;50.360;18.742;2022-08-23T10:56:04;98624.77;;;21.25;93.43
55191;BME280;41070;50.360;18.742;2022-08-23T10:58:55;98625.23;;;21.25;93.36
55191;BME280;41070;50.360;18.742;2022-08-23T11:07:30;98626.23;;;21.25;93.42
55191;BME280;41070;50.360;18.742;2022-08-23T11:13:20;98626.95;;;21.29;93.44
55191;BME280;41070;50.360;18.742;2022-08-23T11:15:58;98630.53;;;21.35;92.95
55191;BME280;41070;50.360;18.742;2022-08-23T11:18:36;98627.92;;;21.37;92.97
55191;BME280;41070;50.360;18.742;2022-08-23T11:31:49;98631.79;;;22.02;92.12
55191;BME280;41070;50.360;18.742;2022-08-23T11:40:06;98636.70;;;22.22;91.08
55191;BME280;41070;50.360;18.742;2022-08-23T11:48:07;98630.92;;;22.27;90.50
55191;BME280;41070;50.360;18.742;2022-08-23T11:58:56;98640.86;;;22.74;89.25
55191;BME280;41070;50.360;18.742;2022-08-23T12:01:31;98638.83;;;22.86;88.86
55191;BME280;41070;50.360;18.742;2022-08-23T12:04:03;98638.36;;;22.93;88.11
55191;BME280;41070;50.360;18.742;2022-08-23T12:06:38;98642.94;;;23.12;88.71
55191;BME280;41070;50.360;18.742;2022-08-23T12:23:03;98645.11;;;24.18;85.07
55191;BME280;41070;50.360;18.742;2022-08-23T12:25:34;98645.66;;;24.30;84.71
55191;BME280;41070;50.360;18.742;2022-08-23T12:28:41;98651.88;;;24.36;83.70
55191;BME280;41070;50.360;18.742;2022-08-23T12:31:38;98650.83;;;24.52;84.20
55191;BME280;41070;50.360;18.742;2022-08-23T12:34:22;98651.41;;;24.62;83.32
55191;BME280;41070;50.360;18.742;2022-08-23T12:43:27;98648.91;;;25.01;82.63
55191;BME280;41070;50.360;18.742;2022-08-23T12:46:40;98651.86;;;25.25;82.46
55191;BME280;41070;50.360;18.742;2022-08-23T12:49:54;98648.94;;;25.48;81.72
55191;BME280;41070;50.360;18.742;2022-08-23T12:53:04;98650.42;;;25.69;81.43
55191;BME280;41070;50.360;18.742;2022-08-23T12:58:50;98652.30;;;25.93;80.17
55191;BME280;41070;50.360;18.742;2022-08-23T13:25:53;98661.04;;;24.47;79.64
55191;BME280;41070;50.360;18.742;2022-08-23T13:28:28;98661.06;;;24.40;80.54
55191;BME280;41070;50.360;18.742;2022-08-23T13:31:15;98663.75;;;24.39;80.24
55191;BME280;41070;50.360;18.742;2022-08-23T13:33:54;98658.30;;;24.41;80.25
55191;BME280;41070;50.360;18.742;2022-08-23T13:36:22;98657.48;;;24.48;80.51
55191;BME280;41070;50.360;18.742;2022-08-23T13:39:30;98659.21;;;24.57;80.15
55191;BME280;41070;50.360;18.742;2022-08-23T13:42:08;98654.65;;;24.66;79.51
55191;BME280;41070;50.360;18.742;2022-08-23T13:44:37;98655.14;;;24.71;79.83
55191;BME280;41070;50.360;18.742;2022-08-23T13:47:28;98659.63;;;24.72;79.29
55191;BME280;41070;50.360;18.742;2022-08-23T13:50:28;98659.09;;;24.72;79.73
55191;BME280;41070;50.360;18.742;2022-08-23T14:12:32;98652.30;;;24.82;77.34
55191;BME280;41070;50.360;18.742;2022-08-23T14:15:04;98653.39;;;24.79;77.72
55191;BME280;41070;50.360;18.742;2022-08-23T14:17:40;98649.42;;;24.85;77.93
55191;BME280;41070;50.360;18.742;2022-08-23T14:20:08;98648.21;;;24.88;78.14
55191;BME280;41070;50.360;18.742;2022-08-23T14:22:37;98652.09;;;24.84;77.21
55191;BME280;41070;50.360;18.742;2022-08-23T14:25:06;98648.33;;;24.71;77.61
55191;BME280;41070;50.360;18.742;2022-08-23T14:27:34;98647.79;;;24.66;78.06
55191;BME280;41070;50.360;18.742;2022-08-23T14:30:02;98644.56;;;24.61;77.48
55191;BME280;41070;50.360;18.742;2022-08-23T14:32:31;98644.30;;;24.51;77.51
55191;BME280;41070;50.360;18.742;2022-08-23T14:35:05;98646.98;;;24.38;77.81
55191;BME280;41070;50.360;18.742;2022-08-23T14:37:33;98651.84;;;24.15;78.38
55191;BME280;41070;50.360;18.742;2022-08-23T14:40:00;98651.92;;;24.04;78.38
55191;BME280;41070;50.360;18.742;2022-08-23T14:42:28;98652.69;;;24.01;78.85
55191;BME280;41070;50.360;18.742;2022-08-23T14:44:57;98650.44;;;24.03;78.56
55191;BME280;41070;50.360;18.742;2022-08-23T14:47:25;98647.14;;;23.99;78.78
55191;BME280;41070;50.360;18.742;2022-08-23T14:49:53;98649.23;;;24.02;78.77
55191;BME280;41070;50.360;18.742;2022-08-23T14:52:21;98650.15;;;23.99;78.68
55191;BME280;41070;50.360;18.742;2022-08-23T14:54:48;98648.33;;;23.98;79.15
55191;BME280;41070;50.360;18.742;2022-08-23T14:57:16;98651.31;;;23.97;79.07
55191;BME280;41070;50.360;18.742;2022-08-23T14:59:44;98650.17;;;23.93;79.22
55191;BME280;41070;50.360;18.742;2022-08-23T15:02:16;98649.64;;;23.83;78.73
55191;BME280;41070;50.360;18.742;2022-08-23T15:04:47;98644.21;;;23.69;79.06
55191;BME280;41070;50.360;18.742;2022-08-23T15:07:15;98645.91;;;23.63;79.28
55191;BME280;41070;50.360;18.742;2022-08-23T15:09:43;98644.96;;;23.61;79.47
55191;BME280;41070;50.360;18.742;2022-08-23T15:12:11;98651.15;;;23.63;79.49
55191;BME280;41070;50.360;18.742;2022-08-23T15:14:38;98653.30;;;23.61;79.45
55191;BME280;41070;50.360;18.742;2022-08-23T15:17:06;98656.48;;;23.58;79.98
55191;BME280;41070;50.360;18.742;2022-08-23T15:19:33;98660.36;;;23.53;80.13
55191;BME280;41070;50.360;18.742;2022-08-23T15:22:02;98658.58;;;23.40;80.35
55191;BME280;41070;50.360;18.742;2022-08-23T15:24:32;98664.94;;;23.35;80.74
55191;BME280;41070;50.360;18.742;2022-08-23T15:27:01;98668.46;;;23.28;80.60
55191;BME280;41070;50.360;18.742;2022-08-23T15:29:29;98671.45;;;23.16;80.70
55191;BME280;41070;50.360;18.742;2022-08-23T15:31:58;98668.55;;;23.07;81.06
55191;BME280;41070;50.360;18.742;2022-08-23T15:34:26;98675.02;;;23.03;81.36
55191;BME280;41070;50.360;18.742;2022-08-23T15:36:53;98675.09;;;22.99;81.79
55191;BME280;41070;50.360;18.742;2022-08-23T15:39:21;98677.95;;;23.00;81.61
55191;BME280;41070;50.360;18.742;2022-08-23T15:41:48;98681.20;;;23.01;82.07
55191;BME280;41070;50.360;18.742;2022-08-23T15:44:16;98684.21;;;23.07;81.96
55191;BME280;41070;50.360;18.742;2022-08-23T15:46:45;98689.42;;;23.11;81.60
55191;BME280;41070;50.360;18.742;2022-08-23T15:49:16;98693.45;;;23.13;81.42
55191;BME280;41070;50.360;18.742;2022-08-23T15:51:44;98698.33;;;23.14;81.33
55191;BME280;41070;50.360;18.742;2022-08-23T15:54:12;98700.67;;;23.13;81.16
55191;BME280;41070;50.360;18.742;2022-08-23T15:56:43;98702.31;;;23.10;81.47